Latest Coastal Weather Observations for Port Fairy

IDV60701

Issued at 10:11 am EST Friday 28 August 2015 (issued every 10 minutes, with the page automatically refreshed every 10 minutes)

About coastal observations | Map of coastal stations | Coastal observations for VIC | Marine services | Other Formats
Station Details ID: 090175 Name: PORT FAIRY AWS Lat: -38.39 Lon: 142.23 Height: 10.0 m
Data from the previous 72 hours. | See also: Recent months at Port Fairy
Date/Time
EST
Temp

°C
Wind Pressure Rain
since 9am
mm
Weather Cloud Vis
km
Sea
Height
m
Swell
Dir
 
Speed
knots
Gust
knots
hPa Trend Height
m
Period
s
Dir
28/10:00am 12.6 S 9 12 1028.2 - 0.0 - - - - - - -
28/09:30am 12.0 S 9 13 1028.1 - 0.0 - - - - - - -
28/09:00am 11.7 S 10 14 1028.0 - 0.2 - - - - - - -
28/08:30am 11.6 S 9 13 1027.8 - 0.2 - - - - - - -
28/08:00am 11.4 S 8 11 1027.6 - 0.2 - - - - - - -
28/07:30am 11.2 S 9 12 1027.4 - 0.2 - - - - - - -
28/07:00am 10.9 SSE 12 16 1027.2 - 0.2 - - - - - - -
28/06:30am 10.9 S 11 17 1027.0 - 0.2 - - - - - - -
28/06:00am 11.1 SSE 13 18 1026.7 - 0.2 - - - - - - -
28/05:30am 10.9 SSW 8 14 1026.5 - 0.2 - - - - - - -
28/05:00am 10.8 SSW 13 18 1026.4 - 0.2 - - - - - - -
28/04:30am 10.8 S 11 15 1026.2 - 0.2 - - - - - - -
28/04:00am 10.8 S 12 16 1026.1 - 0.2 - - - - - - -
28/03:30am 10.8 S 13 20 1026.2 - 0.2 - - - - - - -
28/03:00am 10.6 S 12 18 1026.5 - 0.2 - - - - - - -
28/02:30am 10.5 S 14 22 1026.6 - 0.2 - - - - - - -
28/02:00am 10.2 S 15 19 1026.7 - 0.2 - - - - - - -
28/01:30am 10.8 S 12 17 1026.6 - 0.2 - - - - - - -
28/01:00am 10.8 S 12 18 1026.6 - 0.2 - - - - - - -
28/12:30am 11.0 S 14 19 1026.4 - 0.2 - - - - - - -
28/12:00am 11.1 S 11 17 1026.3 - 0.2 Rain - - - - - -
 
Date/Time
EST
Temp

°C
Wind Pressure Rain
since 9am
mm
Weather Cloud Vis
km
Sea
Height
m
Swell
Dir
 
Speed
knots
Gust
knots
hPa Trend Height
m
Period
s
Dir
27/11:30pm 11.5 S 13 18 1026.4 - 0.0 - - - - - - -
27/11:00pm 11.4 S 12 17 1026.4 - 0.0 - - - - - - -
27/10:30pm 11.3 S 14 18 1026.2 - 0.0 - - - - - - -
27/10:00pm 11.8 S 13 19 1026.3 - 0.0 - - - - - - -
27/09:30pm 12.0 SSE 13 17 1026.2 - 0.0 - - - - - - -
27/09:00pm 11.9 SSE 14 18 1026.0 - 0.0 - - - - - - -
27/08:30pm 11.9 SSE 15 19 1025.8 - 0.0 - - - - - - -
27/08:00pm 12.1 SSE 16 19 1025.3 - 0.0 - - - - - - -
27/07:30pm 11.9 SSE 16 21 1025.0 - 0.0 - - - - - - -
27/07:00pm 11.9 SSE 17 22 1024.8 - 0.0 - - - - - - -
27/06:30pm 11.9 SSE 18 25 1024.3 - 0.0 - - - - - - -
27/06:00pm 12.1 S 18 23 1023.9 - 0.0 - - - - - - -
27/05:30pm 12.1 SSE 19 23 1023.4 - 0.0 - - - - - - -
27/05:00pm 12.3 S 16 21 1023.1 - 0.0 - - - - - - -
27/04:30pm 12.5 SSE 16 21 1022.6 - 0.0 - - - - - - -
27/04:00pm 12.7 S 13 18 1022.3 - 0.0 - - - - - - -
27/03:30pm 13.0 SSW 11 14 1022.2 - 0.0 - - - - - - -
27/03:00pm 13.5 SSW 9 13 1022.1 - 0.0 - - - - - - -
27/02:30pm 13.8 SSW 10 13 1022.2 - 0.0 - - - - - - -
27/02:00pm 14.4 SSW 7 11 1022.1 - 0.0 - - - - - - -
27/01:30pm 14.5 SSW 7 11 1022.3 - 0.0 - - - - - - -
27/01:00pm 14.2 SSW 7 10 1022.4 - 0.0 - - - - - - -
27/12:30pm 14.5 SW 5 7 1022.6 - 0.0 - - - - - - -
27/12:00pm 13.5 WSW 6 8 1022.9 - 0.0 - - - - - - -
27/11:30am 13.3 WSW 10 12 1022.9 - 0.0 - - - - - - -
27/11:00am 13.2 WSW 8 10 1022.9 - 0.0 - - - - - - -
27/10:30am 13.0 WSW 7 9 1022.9 - 0.0 - - - - - - -
27/10:00am 12.8 WSW 7 8 1022.9 - 0.0 - - - - - - -
27/09:30am 11.9 WNW 4 5 1022.9 - 0.0 - - - - - - -
27/09:00am 10.3 NW 3 5 1022.8 - 0.0 - - - - - - -
27/08:30am 8.7 NNW 3 4 1022.8 - 0.0 - - - - - - -
27/08:00am 7.4 NNE 4 6 1022.5 - 0.0 - - - - - - -
27/07:30am 7.2 WNW 2 4 1022.0 - 0.0 - - - - - - -
27/07:00am 7.1 NW 2 5 1021.7 - 0.0 - - - - - - -
27/06:30am 7.1 NNE 2 3 1021.6 - 0.0 - - - - - - -
27/06:00am 7.2 NW 3 5 1021.3 - 0.0 - - - - - - -
27/05:30am 7.4 WNW 5 7 1021.0 - 0.0 - - - - - - -
27/05:00am 7.4 WNW 5 7 1021.0 - 0.0 - - - - - - -
27/04:30am 7.6 WNW 5 7 1020.9 - 0.0 - - - - - - -
27/04:00am 7.4 NW 3 5 1021.1 - 0.0 - - - - - - -
27/03:30am 7.5 NW 3 4 1021.2 - 0.0 - - - - - - -
27/03:00am 7.7 WNW 3 4 1021.4 - 0.0 - - - - - - -
27/02:30am 8.1 WNW 3 4 1021.5 - 0.0 - - - - - - -
27/02:00am 8.6 NNW 3 4 1021.7 - 0.0 - - - - - - -
27/01:30am 9.3 N 3 4 1021.8 - 0.0 - - - - - - -
27/01:00am 9.7 N 3 5 1022.1 - 0.0 - - - - - - -
27/12:30am 10.1 N 3 4 1022.2 - 0.0 - - - - - - -
27/12:00am 10.4 NNE 3 5 1022.3 - 0.0 - - - - - - -
 
Date/Time
EST
Temp

°C
Wind Pressure Rain
since 9am
mm
Weather Cloud Vis
km
Sea
Height
m
Swell
Dir
 
Speed
knots
Gust
knots
hPa Trend Height
m
Period
s
Dir
26/11:30pm 10.4 N 4 6 1022.7 - 0.0 - - - - - - -
26/11:00pm 10.5 NNE 3 4 1022.9 - 0.0 - - - - - - -
26/10:30pm 11.0 NE 3 4 1023.0 - 0.0 - - - - - - -
26/10:00pm 11.2 NE 3 5 1023.0 - 0.0 - - - - - - -
26/09:30pm 11.3 NNE 3 5 1023.1 - 0.0 - - - - - - -
26/09:00pm 11.7 NE 4 6 1023.1 - 0.0 - - - - - - -
26/08:30pm 11.8 NE 3 6 1023.1 - 0.0 - - - - - - -
26/08:00pm 12.1 NE 3 5 1023.1 - 0.0 - - - - - - -
26/07:30pm 12.3 ENE 5 8 1023.1 - 0.0 - - - - - - -
26/07:00pm 12.1 E 5 7 1023.0 - 0.0 - - - - - - -
26/06:30pm 12.1 ESE 6 9 1022.8 - 0.0 - - - - - - -
26/06:00pm 12.1 ESE 7 9 1022.8 - 0.0 - - - - - - -
26/05:30pm 12.3 ESE 6 10 1022.7 - 0.0 - - - - - - -
26/05:00pm 12.5 ESE 6 8 1022.5 - 0.0 - - - - - - -
26/04:30pm 12.7 ESE 6 9 1022.6 - 0.0 - - - - - - -
26/04:00pm 13.2 SE 8 11 1022.4 - 0.0 - - - - - - -
26/03:30pm 13.1 SE 7 13 1022.6 - 0.0 - - - - - - -
26/03:00pm 13.1 SE 9 11 1022.9 - 0.0 - - - - - - -
26/02:30pm 12.7 SE 8 11 1023.1 - 0.0 - - - - - - -
26/02:00pm 13.5 ESE 8 11 1023.3 - 0.0 - - - - - - -
26/01:30pm 12.6 ESE 7 10 1023.6 - 0.0 - - - - - - -
26/01:00pm 12.7 ESE 7 11 1023.7 - 0.0 - - - - - - -
26/12:30pm 13.1 E 7 11 1024.4 - 0.0 - - - - - - -
26/12:00pm 12.4 ENE 7 12 1025.2 - 0.0 - - - - - - -
26/11:30am 12.2 E 8 12 1025.5 - 0.0 - - - - - - -
26/11:00am 12.1 ENE 6 9 1025.9 - 0.0 - - - - - - -
26/10:30am 11.4 ENE 8 11 1026.2 - 0.0 - - - - - - -
26/10:00am 10.5 ENE 8 12 1026.4 - 0.0 - - - - - - -
26/09:30am 10.5 ENE 9 13 1026.6 - 0.0 - - - - - - -
26/09:00am 10.4 ENE 7 11 1026.7 - 0.0 - - - - - - -
26/08:30am 10.6 E 8 13 1026.6 - 0.0 - - - - - - -
26/08:00am 10.8 E 9 15 1026.5 - 0.0 - - - - - - -
26/07:30am 11.1 E 9 15 1026.3 - 0.0 - - - - - - -
26/07:00am 11.3 E 9 13 1026.0 - 0.0 - - - - - - -
26/06:30am 11.3 E 8 14 1026.0 - 0.0 - - - - - - -
26/06:00am 11.3 E 9 13 1026.1 - 0.0 - - - - - - -
26/05:30am 11.1 ESE 9 13 1026.0 - 0.0 - - - - - - -
26/05:00am 11.1 ESE 9 13 1026.1 - 0.0 - - - - - - -
26/04:30am 11.1 ESE 10 15 1026.0 - 0.0 - - - - - - -
26/04:00am 11.1 ESE 11 16 1026.1 - 0.0 - - - - - - -
26/03:30am 11.1 ESE 11 16 1026.3 - 0.0 - - - - - - -
26/03:00am 11.1 ESE 12 17 1026.7 - 0.0 - - - - - - -
26/02:30am 11.0 ESE 12 17 1027.0 - 0.0 - - - - - - -
26/02:00am 11.1 ESE 12 17 1027.3 - 0.0 - - - - - - -
26/01:30am 10.9 ESE 12 17 1027.6 - 0.0 - - - - - - -
26/01:00am 11.1 ESE 13 20 1027.9 - 0.0 - - - - - - -
26/12:30am 11.1 ESE 12 17 1028.0 - 0.0 - - - - - - -
26/12:00am 11.1 ESE 13 19 1028.2 - 0.0 - - - - - - -
 
Date/Time
EST
Temp

°C
Wind Pressure Rain
since 9am
mm
Weather Cloud Vis
km
Sea
Height
m
Swell
Dir
 
Speed
knots
Gust
knots
hPa Trend Height
m
Period
s
Dir
25/11:30pm 10.9 ESE 12 17 1028.3 - 0.0 - - - - - - -
25/11:00pm 11.2 ESE 13 19 1028.5 - 0.0 - - - - - - -
25/10:30pm 11.2 ESE 12 18 1028.5 - 0.0 - - - - - - -
25/10:00pm 11.2 ESE 13 17 1028.6 - 0.0 - - - - - - -
25/09:30pm 11.1 ESE 13 18 1028.7 - 0.0 - - - - - - -
25/09:00pm 11.0 ESE 12 17 1028.6 - 0.0 - - - - - - -
25/08:30pm 11.2 ESE 11 17 1028.6 - 0.0 - - - - - - -
25/08:00pm 11.2 ESE 12 17 1028.6 - 0.0 - - - - - - -
25/07:30pm 11.1 ESE 13 18 1028.5 - 0.0 - - - - - - -
25/07:00pm 11.2 ESE 11 17 1028.4 - 0.0 - - - - - - -
25/06:30pm 11.1 ESE 13 18 1028.2 - 0.0 - - - - - - -
25/06:00pm 10.9 SE 13 18 1027.9 - 0.0 - - - - - - -
25/05:30pm 11.2 SE 14 20 1027.7 - 0.0 - - - - - - -
25/05:00pm 11.5 SE 15 19 1027.5 - 0.0 - - - - - - -
25/04:30pm 11.8 SE 15 21 1027.5 - 0.0 - - - - - - -
25/04:00pm 11.9 SE 16 21 1027.4 - 0.0 - - - - - - -
25/03:30pm 12.2 SE 16 20 1027.5 - 0.0 - - - - - - -
25/03:00pm 12.5 SE 15 20 1027.5 - 0.0 - - - - - - -
25/02:30pm 12.8 SE 14 18 1027.6 - 0.0 - - - - - - -
25/02:00pm 12.7 SE 14 19 1027.8 - 0.0 - - - - - - -
25/01:30pm 12.7 ESE 13 18 1028.1 - 0.0 - - - - - - -
25/01:00pm 12.8 SE 13 17 1028.3 - 0.0 - - - - - - -
25/12:30pm 12.9 SE 13 19 1028.5 - 0.0 - - - - - - -
25/12:00pm 13.3 SE 14 19 1028.7 - 0.0 - - - - - - -
25/11:30am 13.2 SE 14 18 1028.9 - 0.0 - - - - - - -
25/11:00am 12.3 SE 14 18 1029.0 - 0.0 - - - - - - -
25/10:30am 12.6 SE 15 19 1028.9 - 0.0 - - - - - - -

Other Formats:

Comma delimited format used in spreadsheet applications
http://www.bom.gov.au/fwo/IDV60701/IDV60701.94830.axf

JavaScript Object Notation format (JSON) in row-major order
http://www.bom.gov.au/fwo/IDV60701/IDV60701.94830.json